Leadville, CO

1:07 AM MDT on September 03, 2014 (GMT -0600)
Lake County | Change Station
CLOSE
Current Station
Airport
Location: Leadville,
Elevation: 9928 ft
Nearby Weather Stations

Elev 9928 ft 39.23 °N, 106.32 °W | Updated 14 minutes ago

Partly Cloudy
Partly Cloudy
42 °F
Feels Like 42 °F
N
0
Wind Variable Wind from North

Today
High -- | Low -- °F
--% Chance of Precip.
Yesterday
High -- | Low -- °F
Precip. -- in
6:35 AM 7:32 PM
First Quarter, 59% visible
Pressure 29.86 in
Visibility 10.0 miles
Clouds Few 8000 ft
Dew Point 30 °F
Humidity 62%
Rainfall 0.00 in
Snow Depth Not available.
UV 0 out of 12
Pollen 10.10 out of 12
Air Quality Not available.
Flu Activity Not available.
METAR KLXV 030653Z AUTO 00000KT 10SM FEW080 06/M01 A3034 RMK AO2 SLP109 T00561011 402110000

More Conditions Fewer Conditions

Pressure 29.86 in
Visibility 10.0 miles
Clouds Few 8000 ft
Dew Point 30 °F
Humidity 62%
Rainfall 0.00 in
Snow Depth Not available.
UV 0 out of 12
Pollen 10.10 out of 12
Air Quality Not available.
Flu Activity Not available.
METAR KLXV 030653Z AUTO 00000KT 10SM FEW080 06/M01 A3034 RMK AO2 SLP109 T00561011 402110000

More Conditions Fewer Conditions

10-Day Weather Forecast

Almanac

Astronomy

Sep. 03, 2014 Rise Set
Actual Time 6:35 AM MDT 7:32 PM MDT
Civil Twilight 6:07 AM MDT 7:59 PM MDT
Nautical Twilight 5:35 AM MDT 8:32 PM MDT
Astronomical Twilight 5:01 AM MDT 9:05 PM MDT
Moon 3:16 PM MDT 12:32 AM MDT
Length of Visible Light 13h 51m
Length of Day
12h 57m
Tomorrow will be 2m 29s shorter.
First Quarter, 59% of the Moon is Illuminated
Today
First Quarter
Sep 8
Full
Sep 15
Last Quarter
Sep 24
New
Oct 1
First Quarter

Today's Extremes

State Highs State Lows

Community

WunderPhotos

Upload Photos

1,749,888 photos uploaded!

Nearby

Snow Depth

Station Depth Elevation
Buckskin Joe 0 in 11150 ft
Copper Mountain 0 in 10500 ft
Ivanhoe 0 in 10400 ft
Michigan Creek 0 in 10600 ft
Nast Lake 0 in 8700 ft

Earthquake Activity

City Distance Mag. Time & Date
No recent earthquake activity has been reported nearby.
Minimum magnitude displayed is 2.5.

Coastal Water Temperatures

Place Temperature
No Stations Reporting

Nearby Weather Stations